Time;durP1;ratioP1;P1;durP2;ratioP2;P2;SDS_P1;SDS_P2;PMS_P1;PMS_P2;Temp;Humidity;BMP_temperature;BMP_pressure;BME280_temperature;BME280_humidity;BME280_pressure;Samples;Min_cycle;Max_cycle;Signal;HPM_P1;HPM_P2
2022/12/02 00:00:59;;;;;;;;;;;5.00;90.20;;;;;;5004929;28;20449;-78
2022/12/02 00:03:25;;;;;;;;;;;5.00;90.20;;;;;;5005503;28;19926;-78
2022/12/02 00:05:51;;;;;;;;;;;5.00;90.20;;;;;;5006891;28;19941;-78
2022/12/02 00:08:24;;;;;;;;;;;5.00;90.20;;;;;;5005737;28;20044;-77
2022/12/02 00:10:50;;;;;;;;;;;5.00;90.30;;;;;;5004531;28;19936;-76
2022/12/02 00:13:20;;;;;;;;;;;5.00;90.20;;;;;;5008841;28;19969;-78
2022/12/02 00:15:49;;;;;;;;;;;5.00;90.20;;;;;;5003594;28;19921;-78
2022/12/02 00:18:15;;;;;;;;;;;5.00;90.20;;;;;;5005782;28;19925;-78
2022/12/02 00:20:40;;;;;;;;;;;5.00;90.20;;;;;;5002813;28;19929;-78
2022/12/02 00:23:06;;;;;;;;;;;5.00;90.20;;;;;;5007552;28;19918;-77
2022/12/02 00:25:32;;;;;;;;;;;4.90;90.20;;;;;;5006144;28;19965;-77
2022/12/02 00:27:57;;;;;;;;;;;4.90;90.20;;;;;;5007518;28;19918;-78
2022/12/02 00:30:23;;;;;;;;;;;5.00;90.20;;;;;;5004546;28;19925;-78
2022/12/02 00:32:48;;;;;;;;;;;5.00;90.20;;;;;;5004392;28;20004;-77
2022/12/02 00:35:14;;;;;;;;;;;4.90;90.20;;;;;;5004543;28;19926;-77
2022/12/02 00:37:40;;;;;;;;;;;5.00;90.20;;;;;;5006243;28;20529;-78
2022/12/02 00:40:05;;;;;;;;;;;5.00;90.20;;;;;;5007071;28;19917;-78
2022/12/02 00:42:31;;;;;;;;;;;4.90;90.20;;;;;;5007906;28;19967;-78
2022/12/02 00:47:40;;;;;;;;;;;5.00;90.20;;;;;;5000993;28;19952;-78
2022/12/02 00:50:06;;;;;;;;;;;5.00;90.20;;;;;;5006481;28;19925;-78
2022/12/02 00:52:31;;;;;;;;;;;5.00;90.20;;;;;;5005320;28;19918;-77
2022/12/02 00:54:57;;;;;;;;;;;4.90;90.20;;;;;;5005134;28;20283;-77
2022/12/02 00:57:22;;;;;;;;;;;5.00;90.20;;;;;;5003141;28;19984;-78
2022/12/02 00:59:48;;;;;;;;;;;5.00;90.20;;;;;;5002098;28;19929;-79
2022/12/02 01:02:13;;;;;;;;;;;5.00;90.20;;;;;;5003005;28;19918;-78
2022/12/02 01:04:38;;;;;;;;;;;5.00;90.20;;;;;;5005070;28;19929;-77
2022/12/02 01:07:04;;;;;;;;;;;5.00;90.20;;;;;;5010531;28;19921;-78
2022/12/02 01:09:29;;;;;;;;;;;5.00;90.20;;;;;;4994486;28;19953;-78
2022/12/02 01:11:55;;;;;;;;;;;5.00;90.20;;;;;;5007155;28;20346;-77
2022/12/02 01:14:20;;;;;;;;;;;5.00;90.20;;;;;;5008587;28;19936;-78
2022/12/02 01:16:46;;;;;;;;;;;5.00;90.20;;;;;;5006972;28;19971;-78
2022/12/02 01:19:11;;;;;;;;;;;5.00;90.20;;;;;;5007722;28;19932;-78
2022/12/02 01:21:37;;;;;;;;;;;5.00;90.20;;;;;;5008674;28;19968;-77
2022/12/02 01:24:02;;;;;;;;;;;4.90;90.20;;;;;;5008168;28;20282;-78
2022/12/02 01:26:28;;;;;;;;;;;4.90;90.20;;;;;;5006045;28;19921;-78
2022/12/02 01:28:53;;;;;;;;;;;4.90;90.20;;;;;;5009162;28;20128;-77
2022/12/02 01:31:19;;;;;;;;;;;4.90;90.20;;;;;;5005050;28;19944;-78
2022/12/02 01:33:44;;;;;;;;;;;4.90;90.20;;;;;;5007877;28;19956;-78
2022/12/02 01:36:09;;;;;;;;;;;5.00;90.20;;;;;;4991524;28;19921;-77
2022/12/02 01:38:35;;;;;;;;;;;4.90;90.20;;;;;;5023248;28;19984;-78
2022/12/02 01:41:00;;;;;;;;;;;4.90;90.20;;;;;;5005068;28;19924;-78
2022/12/02 01:43:26;;;;;;;;;;;5.00;90.30;;;;;;5009373;28;19922;-77
2022/12/02 01:45:52;;;;;;;;;;;4.90;90.20;;;;;;5007424;28;19928;-78
2022/12/02 01:48:17;;;;;;;;;;;4.90;90.20;;;;;;5006738;28;20028;-78
2022/12/02 01:50:43;;;;;;;;;;;5.00;90.20;;;;;;4991092;28;19925;-78
2022/12/02 01:53:08;;;;;;;;;;;5.00;90.20;;;;;;5007497;28;20386;-77
2022/12/02 01:55:34;;;;;;;;;;;5.00;90.20;;;;;;5011581;28;20004;-76
2022/12/02 01:57:59;;;;;;;;;;;4.90;90.20;;;;;;5009814;28;19918;-78
2022/12/02 02:00:25;;;;;;;;;;;5.00;90.20;;;;;;5005537;28;19922;-77
2022/12/02 02:02:51;;;;;;;;;;;5.00;90.20;;;;;;5006029;28;19929;-78
2022/12/02 02:05:26;;;;;;;;;;;5.00;90.20;;;;;;5008632;28;19921;-77
2022/12/02 02:07:52;;;;;;;;;;;5.00;90.20;;;;;;5006368;28;19925;-77
2022/12/02 02:10:17;;;;;;;;;;;5.00;90.20;;;;;;5010446;28;19922;-76
2022/12/02 02:12:43;;;;;;;;;;;5.00;90.20;;;;;;5009719;28;19992;-77
2022/12/02 02:15:09;;;;;;;;;;;5.00;90.20;;;;;;5010385;28;19917;-76
2022/12/02 02:17:35;;;;;;;;;;;5.00;90.20;;;;;;5005221;28;19928;-78
2022/12/02 02:20:01;;;;;;;;;;;5.00;90.20;;;;;;5007434;28;20463;-77
2022/12/02 02:22:28;;;;;;;;;;;4.90;90.20;;;;;;5008148;28;19954;-78
2022/12/02 02:24:54;;;;;;;;;;;5.00;90.20;;;;;;5007538;28;19917;-78
2022/12/02 02:27:19;;;;;;;;;;;5.00;90.20;;;;;;5005754;28;19918;-78
2022/12/02 02:29:45;;;;;;;;;;;5.00;90.20;;;;;;5011165;28;19964;-79
2022/12/02 02:32:10;;;;;;;;;;;5.00;90.20;;;;;;5010476;28;20337;-78
2022/12/02 02:34:36;;;;;;;;;;;4.90;90.20;;;;;;5008172;28;19918;-77
2022/12/02 02:37:01;;;;;;;;;;;5.00;90.20;;;;;;5010937;28;19922;-78
2022/12/02 02:39:26;;;;;;;;;;;4.90;90.20;;;;;;5007650;28;19921;-78
2022/12/02 02:41:52;;;;;;;;;;;4.90;90.20;;;;;;5005742;28;20331;-78
2022/12/02 02:44:17;;;;;;;;;;;4.90;90.20;;;;;;4990783;28;19938;-78
2022/12/02 02:46:43;;;;;;;;;;;5.00;90.20;;;;;;5003334;28;19992;-78
2022/12/02 02:49:08;;;;;;;;;;;4.90;90.20;;;;;;5006088;28;20309;-78
2022/12/02 02:51:34;;;;;;;;;;;4.90;90.20;;;;;;5024134;28;19930;-76
2022/12/02 02:53:59;;;;;;;;;;;5.00;90.20;;;;;;5006224;28;20375;-79
2022/12/02 02:56:25;;;;;;;;;;;4.90;90.20;;;;;;5007268;28;19928;-77
2022/12/02 02:58:50;;;;;;;;;;;4.90;90.20;;;;;;5008699;28;19926;-78
2022/12/02 03:01:17;;;;;;;;;;;4.90;90.20;;;;;;5006867;28;19936;-78
2022/12/02 03:03:47;;;;;;;;;;;5.00;90.20;;;;;;5011320;28;19997;-79
2022/12/02 03:06:12;;;;;;;;;;;5.00;90.20;;;;;;5006550;28;19955;-78
2022/12/02 03:08:39;;;;;;;;;;;5.00;90.20;;;;;;5018540;28;19925;-78
2022/12/02 03:11:05;;;;;;;;;;;5.00;90.20;;;;;;5006087;28;19921;-78
2022/12/02 03:13:30;;;;;;;;;;;5.00;90.20;;;;;;5004657;28;20621;-79
2022/12/02 03:15:56;;;;;;;;;;;5.00;90.20;;;;;;5025738;28;19928;-77
2022/12/02 03:18:21;;;;;;;;;;;5.00;90.20;;;;;;5005602;28;19962;-77
2022/12/02 03:20:47;;;;;;;;;;;4.90;90.20;;;;;;5006542;28;19999;-77
2022/12/02 03:23:12;;;;;;;;;;;4.90;90.20;;;;;;5007972;28;19918;-78
2022/12/02 03:25:38;;;;;;;;;;;4.90;90.20;;;;;;5003943;28;20623;-78
2022/12/02 03:28:03;;;;;;;;;;;5.00;90.20;;;;;;5006690;28;19922;-78
2022/12/02 03:30:29;;;;;;;;;;;4.90;90.20;;;;;;5006429;28;20419;-77
2022/12/02 03:32:54;;;;;;;;;;;5.00;90.20;;;;;;5007340;28;19967;-77
2022/12/02 03:35:19;;;;;;;;;;;4.90;90.20;;;;;;5006567;28;19922;-78
2022/12/02 03:37:45;;;;;;;;;;;4.90;90.20;;;;;;5006759;28;19953;-76
2022/12/02 03:40:11;;;;;;;;;;;4.90;90.20;;;;;;5004810;28;19921;-77
2022/12/02 03:42:36;;;;;;;;;;;4.90;90.20;;;;;;5007880;28;19918;-78
2022/12/02 03:45:02;;;;;;;;;;;5.00;90.20;;;;;;5004248;28;19918;-78
2022/12/02 03:47:28;;;;;;;;;;;4.90;90.20;;;;;;5017520;28;19969;-77
2022/12/02 03:49:53;;;;;;;;;;;5.00;90.20;;;;;;5011027;28;19930;-77
2022/12/02 03:52:18;;;;;;;;;;;4.90;90.20;;;;;;5006022;28;19976;-77
2022/12/02 03:54:44;;;;;;;;;;;4.90;90.20;;;;;;5005652;28;19921;-77
2022/12/02 03:57:10;;;;;;;;;;;4.90;90.20;;;;;;5009729;28;20385;-79
2022/12/02 03:59:35;;;;;;;;;;;4.90;90.20;;;;;;5009630;28;19940;-77
2022/12/02 04:02:01;;;;;;;;;;;4.90;90.20;;;;;;5005378;28;19922;-78
2022/12/02 04:04:26;;;;;;;;;;;4.90;90.20;;;;;;5007681;28;20335;-79
2022/12/02 04:06:52;;;;;;;;;;;4.90;90.20;;;;;;5010514;28;19918;-78
2022/12/02 04:09:17;;;;;;;;;;;4.90;90.20;;;;;;5006401;28;19918;-79
2022/12/02 04:11:43;;;;;;;;;;;4.90;90.30;;;;;;5009190;28;20345;-78
2022/12/02 04:14:08;;;;;;;;;;;4.80;90.20;;;;;;5012146;28;19932;-78
2022/12/02 04:16:33;;;;;;;;;;;4.80;90.20;;;;;;5012035;28;19956;-79
2022/12/02 04:18:59;;;;;;;;;;;4.80;90.20;;;;;;5006954;28;19925;-78
2022/12/02 04:21:24;;;;;;;;;;;4.90;90.30;;;;;;5007555;28;19922;-78
2022/12/02 04:23:51;;;;;;;;;;;4.80;90.20;;;;;;5010259;28;19921;-78
2022/12/02 04:26:17;;;;;;;;;;;4.80;90.20;;;;;;5009472;28;19967;-79
2022/12/02 04:28:42;;;;;;;;;;;4.80;90.20;;;;;;5008200;28;20398;-77
2022/12/02 04:31:08;;;;;;;;;;;4.80;90.20;;;;;;5008125;28;21092;-78
2022/12/02 04:33:34;;;;;;;;;;;4.80;90.20;;;;;;5000144;28;19925;-77
2022/12/02 04:35:59;;;;;;;;;;;4.80;90.20;;;;;;5007126;28;19929;-78
2022/12/02 04:38:24;;;;;;;;;;;4.80;90.20;;;;;;5006023;28;20521;-78
2022/12/02 04:40:50;;;;;;;;;;;4.80;90.20;;;;;;5010697;28;19936;-77
2022/12/02 04:43:15;;;;;;;;;;;4.70;90.20;;;;;;5009092;28;19939;-78
2022/12/02 04:45:41;;;;;;;;;;;4.70;90.20;;;;;;5008662;28;20318;-79
2022/12/02 04:48:06;;;;;;;;;;;4.70;90.20;;;;;;4991560;28;19964;-78
2022/12/02 04:50:32;;;;;;;;;;;4.70;90.20;;;;;;5011404;28;19932;-78
2022/12/02 04:52:57;;;;;;;;;;;4.70;90.20;;;;;;5002163;28;20462;-77
2022/12/02 04:55:23;;;;;;;;;;;4.70;90.30;;;;;;5007754;28;19979;-76
2022/12/02 04:57:48;;;;;;;;;;;4.70;90.30;;;;;;5001837;28;19918;-77
2022/12/02 05:00:14;;;;;;;;;;;4.70;90.30;;;;;;5007462;28;19986;-78
2022/12/02 05:02:39;;;;;;;;;;;4.70;90.30;;;;;;5005429;28;19944;-78
2022/12/02 05:05:05;;;;;;;;;;;4.70;90.30;;;;;;5005064;28;20246;-78
2022/12/02 05:07:30;;;;;;;;;;;4.70;90.30;;;;;;5005818;28;19914;-78
2022/12/02 05:09:56;;;;;;;;;;;4.70;90.30;;;;;;5004780;28;19926;-78
2022/12/02 05:12:23;;;;;;;;;;;4.70;90.30;;;;;;4997011;28;19917;-78
2022/12/02 05:14:49;;;;;;;;;;;4.60;90.20;;;;;;5006757;28;19921;-77
2022/12/02 05:17:14;;;;;;;;;;;4.70;90.30;;;;;;5002395;28;19926;-77
2022/12/02 05:19:40;;;;;;;;;;;4.70;90.30;;;;;;5006448;28;19924;-78
2022/12/02 05:22:05;;;;;;;;;;;4.70;90.30;;;;;;5011046;28;19921;-78
2022/12/02 05:24:31;;;;;;;;;;;4.70;90.30;;;;;;4997222;28;19928;-78
2022/12/02 05:26:56;;;;;;;;;;;4.70;90.30;;;;;;4992577;28;19992;-77
2022/12/02 05:29:22;;;;;;;;;;;4.60;90.20;;;;;;4994529;28;19928;-76
2022/12/02 05:31:47;;;;;;;;;;;4.60;90.20;;;;;;4996359;28;19925;-77
2022/12/02 05:34:13;;;;;;;;;;;4.60;90.30;;;;;;4994829;28;20298;-77
2022/12/02 05:36:38;;;;;;;;;;;4.60;90.30;;;;;;4997429;28;19926;-78
2022/12/02 05:39:04;;;;;;;;;;;4.60;90.30;;;;;;4995558;28;20753;-76
2022/12/02 05:41:30;;;;;;;;;;;4.60;90.30;;;;;;4996509;28;20013;-77
2022/12/02 05:43:55;;;;;;;;;;;4.50;90.30;;;;;;4994310;28;20326;-77
2022/12/02 05:46:21;;;;;;;;;;;4.50;90.30;;;;;;4995729;28;19917;-78
2022/12/02 05:48:47;;;;;;;;;;;4.50;90.30;;;;;;5014742;28;19921;-76
2022/12/02 05:51:13;;;;;;;;;;;4.50;90.30;;;;;;4998260;28;19925;-76
2022/12/02 05:53:40;;;;;;;;;;;4.50;90.30;;;;;;5000246;28;19942;-77
2022/12/02 05:56:06;;;;;;;;;;;4.50;90.30;;;;;;4984954;28;19925;-78
2022/12/02 05:58:31;;;;;;;;;;;4.50;90.30;;;;;;4990086;28;19926;-77
2022/12/02 06:00:57;;;;;;;;;;;4.40;90.30;;;;;;4990914;28;19972;-76
2022/12/02 06:03:23;;;;;;;;;;;4.40;90.30;;;;;;4991946;28;19929;-77
2022/12/02 06:05:48;;;;;;;;;;;4.40;90.30;;;;;;4992075;28;19929;-77
2022/12/02 06:08:14;;;;;;;;;;;4.40;90.40;;;;;;4992486;28;22008;-76
2022/12/02 06:10:40;;;;;;;;;;;4.40;90.30;;;;;;4994695;28;19961;-78
2022/12/02 06:13:09;;;;;;;;;;;4.40;90.30;;;;;;4992104;28;19975;-77
2022/12/02 06:15:35;;;;;;;;;;;4.40;90.30;;;;;;4993373;28;19932;-76
2022/12/02 06:18:01;;;;;;;;;;;4.40;90.40;;;;;;4993849;28;19932;-78
2022/12/02 06:20:29;;;;;;;;;;;4.40;90.30;;;;;;4978069;28;19925;-77
2022/12/02 06:22:54;;;;;;;;;;;4.40;90.30;;;;;;4993547;28;19928;-78
2022/12/02 06:25:29;;;;;;;;;;;4.40;90.30;;;;;;5015955;28;19917;-77
2022/12/02 06:27:55;;;;;;;;;;;4.40;90.30;;;;;;4998032;28;20404;-78
2022/12/02 06:30:21;;;;;;;;;;;4.40;90.30;;;;;;4997624;28;20514;-77
2022/12/02 06:32:50;;;;;;;;;;;4.40;90.30;;;;;;4995208;28;19917;-78
2022/12/02 06:35:25;;;;;;;;;;;4.40;90.30;;;;;;4989483;28;19932;-77
2022/12/02 06:37:53;;;;;;;;;;;4.40;90.30;;;;;;4997383;28;19924;-77
2022/12/02 06:40:23;;;;;;;;;;;4.40;90.30;;;;;;4994775;28;19918;-76
2022/12/02 06:42:48;;;;;;;;;;;4.30;90.30;;;;;;4997960;28;19926;-77
2022/12/02 06:45:23;;;;;;;;;;;4.30;90.30;;;;;;4999258;28;19928;-76
2022/12/02 06:47:58;;;;;;;;;;;4.30;90.30;;;;;;4993746;28;19922;-76
2022/12/02 06:50:25;;;;;;;;;;;4.30;90.30;;;;;;4994147;28;19926;-77
2022/12/02 06:52:50;;;;;;;;;;;4.30;90.30;;;;;;4994075;28;19993;-77
2022/12/02 06:55:32;;;;;;;;;;;4.30;90.30;;;;;;4998069;28;20570;-77
2022/12/02 06:58:08;;;;;;;;;;;4.30;90.30;;;;;;4993442;28;19918;-76
2022/12/02 07:00:36;;;;;;;;;;;4.20;90.30;;;;;;4991107;28;19917;-78
2022/12/02 07:03:02;;;;;;;;;;;4.20;90.30;;;;;;4994095;28;20598;-77
2022/12/02 07:05:27;;;;;;;;;;;4.20;90.30;;;;;;5001669;28;19925;-75
2022/12/02 07:07:53;;;;;;;;;;;4.20;90.30;;;;;;5001548;28;19917;-77
2022/12/02 07:10:26;;;;;;;;;;;4.20;90.30;;;;;;4999064;28;19925;-78
2022/12/02 07:12:51;;;;;;;;;;;4.20;90.40;;;;;;4999515;28;19926;-78
2022/12/02 07:15:30;;;;;;;;;;;4.10;90.30;;;;;;5005264;28;19917;-78
2022/12/02 07:17:56;;;;;;;;;;;4.10;90.30;;;;;;5014853;28;19921;-76
2022/12/02 07:20:31;;;;;;;;;;;4.10;90.30;;;;;;4998321;28;19984;-77
2022/12/02 07:22:59;;;;;;;;;;;4.10;90.40;;;;;;4994676;28;20131;-76
2022/12/02 07:25:33;;;;;;;;;;;4.10;90.40;;;;;;5000284;28;19945;-77
2022/12/02 07:27:58;;;;;;;;;;;4.10;90.40;;;;;;5003568;28;20016;-77
2022/12/02 07:30:25;;;;;;;;;;;4.10;90.40;;;;;;5005658;28;19957;-77
2022/12/02 07:32:50;;;;;;;;;;;4.00;90.40;;;;;;5004866;28;19913;-78
2022/12/02 07:35:16;;;;;;;;;;;4.00;90.40;;;;;;5004239;28;19949;-78
2022/12/02 07:37:41;;;;;;;;;;;4.00;90.40;;;;;;5005626;28;19913;-77
2022/12/02 07:40:07;;;;;;;;;;;4.10;90.40;;;;;;5005150;28;20347;-77
2022/12/02 07:42:32;;;;;;;;;;;4.10;90.40;;;;;;5006285;28;19914;-77
2022/12/02 07:44:58;;;;;;;;;;;4.10;90.40;;;;;;5006104;28;19920;-77
2022/12/02 07:47:23;;;;;;;;;;;4.10;90.40;;;;;;5007561;28;19917;-77
2022/12/02 07:49:49;;;;;;;;;;;4.10;90.40;;;;;;5005135;28;19983;-76
2022/12/02 07:52:14;;;;;;;;;;;4.10;90.40;;;;;;5008264;28;19936;-76
2022/12/02 07:54:40;;;;;;;;;;;4.00;90.40;;;;;;5004157;28;20141;-76
2022/12/02 07:57:05;;;;;;;;;;;4.00;90.40;;;;;;5007500;28;20313;-77
2022/12/02 07:59:31;;;;;;;;;;;4.00;90.40;;;;;;5003937;28;19952;-77
2022/12/02 08:01:56;;;;;;;;;;;4.10;90.40;;;;;;5005354;28;20385;-77
2022/12/02 08:04:22;;;;;;;;;;;4.10;90.40;;;;;;5002298;28;19929;-79
2022/12/02 08:06:47;;;;;;;;;;;4.00;90.40;;;;;;4999975;28;20402;-76
2022/12/02 08:09:13;;;;;;;;;;;4.00;90.40;;;;;;4999504;28;19922;-78
2022/12/02 08:11:38;;;;;;;;;;;4.00;90.40;;;;;;5002906;28;19929;-79
2022/12/02 08:14:04;;;;;;;;;;;4.00;90.40;;;;;;5001567;28;21568;-78
2022/12/02 08:16:29;;;;;;;;;;;4.00;90.40;;;;;;5000008;28;20020;-78
2022/12/02 08:18:55;;;;;;;;;;;4.00;90.40;;;;;;4999484;28;19928;-76
2022/12/02 08:21:20;;;;;;;;;;;4.00;90.40;;;;;;4996042;28;19922;-77
2022/12/02 08:23:46;;;;;;;;;;;4.00;90.40;;;;;;4998441;28;19934;-76
2022/12/02 08:26:11;;;;;;;;;;;3.90;90.40;;;;;;4995546;28;19921;-77
2022/12/02 08:28:37;;;;;;;;;;;3.90;90.40;;;;;;4995660;28;20536;-76
2022/12/02 08:31:02;;;;;;;;;;;3.90;90.40;;;;;;4997650;28;20001;-77
2022/12/02 08:33:27;;;;;;;;;;;3.90;90.40;;;;;;4994640;28;19932;-76
2022/12/02 08:35:53;;;;;;;;;;;3.90;90.40;;;;;;4996759;28;20005;-76
2022/12/02 08:38:18;;;;;;;;;;;3.90;90.40;;;;;;4996580;28;20386;-76
2022/12/02 08:40:44;;;;;;;;;;;3.90;90.40;;;;;;5001356;28;19921;-77
2022/12/02 08:43:09;;;;;;;;;;;3.90;90.40;;;;;;4997006;28;19977;-76
2022/12/02 08:45:35;;;;;;;;;;;3.90;90.40;;;;;;4995845;28;20451;-78
2022/12/02 08:48:00;;;;;;;;;;;4.00;90.40;;;;;;4998223;28;20000;-76
2022/12/02 08:50:26;;;;;;;;;;;3.90;90.40;;;;;;5000619;28;20570;-76
2022/12/02 08:52:51;;;;;;;;;;;4.00;90.40;;;;;;4996365;28;20000;-76
2022/12/02 08:55:35;;;;;;;;;;;4.00;90.40;;;;;;5000209;28;20442;-79
2022/12/02 08:58:01;;;;;;;;;;;4.00;90.40;;;;;;4984637;28;20291;-77
2022/12/02 09:00:26;;;;;;;;;;;4.00;90.40;;;;;;5000019;28;19997;-77
2022/12/02 09:02:52;;;;;;;;;;;3.90;90.40;;;;;;4999573;28;19925;-78
2022/12/02 09:05:17;;;;;;;;;;;3.90;90.40;;;;;;4997636;28;19941;-79
2022/12/02 09:07:43;;;;;;;;;;;3.90;90.40;;;;;;5001989;28;19917;-78
2022/12/02 09:10:08;;;;;;;;;;;3.90;90.40;;;;;;5048773;23;19935;-78
2022/12/02 09:12:34;;;;;;;;;;;3.80;90.40;;;;;;5045868;28;20262;-76
2022/12/02 09:15:00;;;;;;;;;;;3.90;90.40;;;;;;5046590;28;19917;-77
2022/12/02 09:17:25;;;;;;;;;;;3.90;90.40;;;;;;5048775;28;19924;-77
2022/12/02 09:19:50;;;;;;;;;;;3.90;90.40;;;;;;5046538;28;19917;-76
2022/12/02 09:22:16;;;;;;;;;;;3.90;90.40;;;;;;5044566;28;19967;-78
2022/12/02 09:24:42;;;;;;;;;;;3.80;90.40;;;;;;5041575;28;20419;-78
2022/12/02 09:27:07;;;;;;;;;;;3.90;90.50;;;;;;5045744;28;19925;-76
2022/12/02 09:29:33;;;;;;;;;;;3.90;90.50;;;;;;5050187;28;19923;-77
2022/12/02 09:31:59;;;;;;;;;;;3.90;90.50;;;;;;5051210;28;20007;-76
2022/12/02 09:34:24;;;;;;;;;;;3.90;90.50;;;;;;5046025;28;19947;-78
2022/12/02 09:36:50;;;;;;;;;;;3.90;90.40;;;;;;5042704;28;20555;-78
2022/12/02 09:39:15;;;;;;;;;;;3.90;90.50;;;;;;5046825;28;19917;-79
2022/12/02 09:41:41;;;;;;;;;;;3.90;90.50;;;;;;5042423;28;20416;-79
2022/12/02 09:44:06;;;;;;;;;;;3.90;90.50;;;;;;5045466;28;19932;-78
2022/12/02 09:46:32;;;;;;;;;;;3.90;90.50;;;;;;5045857;28;19913;-79
2022/12/02 09:48:57;;;;;;;;;;;3.90;90.50;;;;;;5044952;28;19999;-79
2022/12/02 09:51:23;;;;;;;;;;;4.00;90.50;;;;;;5050383;28;20814;-78
2022/12/02 09:53:48;;;;;;;;;;;4.00;90.50;;;;;;5053889;28;19913;-77
2022/12/02 09:56:15;;;;;;;;;;;4.00;90.50;;;;;;5050394;28;20123;-76
2022/12/02 09:58:40;;;;;;;;;;;4.00;90.50;;;;;;5047077;28;19968;-76
2022/12/02 10:01:09;;;;;;;;;;;4.00;90.40;;;;;;5056521;28;19905;-78
2022/12/02 10:03:35;;;;;;;;;;;4.00;90.40;;;;;;5055210;28;19925;-78
2022/12/02 10:06:00;;;;;;;;;;;4.00;90.40;;;;;;5051727;28;19995;-78
2022/12/02 10:08:26;;;;;;;;;;;4.00;90.40;;;;;;5057358;28;19912;-76
2022/12/02 10:10:52;;;;;;;;;;;4.00;90.40;;;;;;5072157;28;19935;-75
2022/12/02 10:13:18;;;;;;;;;;;4.00;90.40;;;;;;5060360;28;19908;-76
2022/12/02 10:15:43;;;;;;;;;;;4.00;90.40;;;;;;5078440;28;19912;-78
2022/12/02 10:18:14;;;;;;;;;;;4.00;90.40;;;;;;5076136;28;19923;-75
2022/12/02 10:20:39;;;;;;;;;;;4.00;90.40;;;;;;5059001;28;19958;-74
2022/12/02 10:23:17;;;;;;;;;;;4.00;90.50;;;;;;5066776;28;19970;-76
2022/12/02 10:25:44;;;;;;;;;;;4.00;90.50;;;;;;5063530;28;19920;-76
2022/12/02 10:28:31;;;;;;;;;;;4.00;90.40;;;;;;5060881;28;19913;-78
2022/12/02 10:31:00;;;;;;;;;;;4.00;90.40;;;;;;5067246;28;20296;-77
2022/12/02 10:33:26;;;;;;;;;;;4.00;90.40;;;;;;5061411;28;19956;-78
2022/12/02 10:35:53;;;;;;;;;;;4.00;90.40;;;;;;5061539;28;19912;-77
2022/12/02 10:38:28;;;;;;;;;;;4.00;90.40;;;;;;5066379;28;19913;-75
2022/12/02 10:41:09;;;;;;;;;;;4.00;90.40;;;;;;5058408;28;19917;-78
2022/12/02 10:43:34;;;;;;;;;;;4.00;90.40;;;;;;5064359;28;19950;-77
2022/12/02 10:46:11;;;;;;;;;;;4.10;90.50;;;;;;5058169;28;19935;-76
2022/12/02 10:48:36;;;;;;;;;;;4.10;90.40;;;;;;5054585;28;20300;-76
2022/12/02 10:51:02;;;;;;;;;;;4.10;90.50;;;;;;5067407;28;19924;-75
2022/12/02 10:53:28;;;;;;;;;;;4.10;90.40;;;;;;5068042;28;19923;-77
2022/12/02 10:55:53;;;;;;;;;;;4.10;90.40;;;;;;5070182;28;19921;-76
2022/12/02 10:58:24;;;;;;;;;;;4.10;90.40;;;;;;5069230;28;19921;-77
2022/12/02 11:00:49;;;;;;;;;;;4.10;90.40;;;;;;5067359;28;19923;-77
2022/12/02 11:03:15;;;;;;;;;;;4.10;90.40;;;;;;5066180;28;19924;-76
2022/12/02 11:05:40;;;;;;;;;;;4.10;90.70;;;;;;5058290;28;19925;-76
2022/12/02 11:08:07;;;;;;;;;;;4.10;90.40;;;;;;5059135;28;19974;-76
2022/12/02 11:10:33;;;;;;;;;;;4.10;90.40;;;;;;5047943;28;19937;-77
2022/12/02 11:13:11;;;;;;;;;;;4.10;90.40;;;;;;5034564;28;20020;-77
2022/12/02 11:15:38;;;;;;;;;;;4.10;90.40;;;;;;5043473;28;20007;-75
2022/12/02 11:18:04;;;;;;;;;;;4.10;90.40;;;;;;5060072;28;20392;-76
2022/12/02 11:20:33;;;;;;;;;;;4.10;90.40;;;;;;5056433;28;19924;-78
2022/12/02 11:22:59;;;;;;;;;;;4.10;90.40;;;;;;5057341;28;20412;-76
2022/12/02 11:25:42;;;;;;;;;;;4.20;90.40;;;;;;5060287;28;19917;-77
2022/12/02 11:28:14;;;;;;;;;;;4.10;90.40;;;;;;5054779;28;19921;-78
2022/12/02 11:30:40;;;;;;;;;;;4.10;90.30;;;;;;5058037;28;20035;-76
2022/12/02 11:33:08;;;;;;;;;;;4.10;90.30;;;;;;5058012;28;20015;-76
2022/12/02 11:36:03;;;;;;;;;;;4.10;90.30;;;;;;5058324;28;19932;-78
2022/12/02 11:38:28;;;;;;;;;;;4.10;90.40;;;;;;5057609;28;19947;-77
2022/12/02 11:40:54;;;;;;;;;;;4.10;90.40;;;;;;5054863;28;20572;-77
2022/12/02 11:43:38;;;;;;;;;;;4.10;90.40;;;;;;5036933;28;19966;-76
2022/12/02 11:46:04;;;;;;;;;;;4.10;90.40;;;;;;5052440;28;19916;-76
2022/12/02 11:48:29;;;;;;;;;;;4.10;90.30;;;;;;5054732;28;19932;-76
2022/12/02 11:50:55;;;;;;;;;;;4.10;90.40;;;;;;5046665;28;19932;-77
2022/12/02 11:53:20;;;;;;;;;;;4.10;90.40;;;;;;5053023;28;19917;-77
2022/12/02 11:55:46;;;;;;;;;;;4.10;90.40;;;;;;5053714;28;19975;-76
2022/12/02 11:58:21;;;;;;;;;;;4.10;90.40;;;;;;5051665;28;22663;-76
2022/12/02 12:01:07;;;;;;;;;;;4.00;90.30;;;;;;5055390;28;19963;-76
2022/12/02 12:03:32;;;;;;;;;;;4.00;90.40;;;;;;5057964;28;20396;-75
2022/12/02 12:06:11;;;;;;;;;;;4.00;90.30;;;;;;5051027;28;19923;-75
2022/12/02 12:08:37;;;;;;;;;;;4.00;90.40;;;;;;5049809;28;20023;-77
2022/12/02 12:11:18;;;;;;;;;;;4.00;90.40;;;;;;5048552;28;20416;-76
2022/12/02 12:14:03;;;;;;;;;;;4.00;90.40;;;;;;5050384;28;19916;-75
2022/12/02 12:16:31;;;;;;;;;;;4.00;90.40;;;;;;5053689;28;19964;-76
2022/12/02 12:19:20;;;;;;;;;;;4.00;90.40;;;;;;5055436;28;19916;-75
2022/12/02 12:21:53;;;;;;;;;;;4.00;90.40;;;;;;5047868;28;19921;-76
2022/12/02 12:24:20;;;;;;;;;;;4.00;90.40;;;;;;5038681;28;20008;-77
2022/12/02 12:26:49;;;;;;;;;;;3.90;90.40;;;;;;5051449;28;19920;-76
2022/12/02 12:29:14;;;;;;;;;;;3.90;90.40;;;;;;5049921;28;19928;-75
2022/12/02 12:31:40;;;;;;;;;;;4.00;90.40;;;;;;5036548;28;19929;-75
2022/12/02 12:34:05;;;;;;;;;;;3.90;90.40;;;;;;5034478;28;19917;-76
2022/12/02 12:36:31;;;;;;;;;;;4.00;90.40;;;;;;5047602;28;19920;-76
2022/12/02 12:38:56;;;;;;;;;;;3.90;90.40;;;;;;5052592;28;19955;-75
2022/12/02 12:41:21;;;;;;;;;;;3.90;90.40;;;;;;5037132;28;19955;-76
2022/12/02 12:43:47;;;;;;;;;;;4.00;90.40;;;;;;5036043;28;19921;-75
2022/12/02 12:46:13;;;;;;;;;;;3.90;90.40;;;;;;5054975;28;19931;-76
2022/12/02 12:48:38;;;;;;;;;;;3.90;90.40;;;;;;5056425;28;20443;-76
2022/12/02 12:51:04;;;;;;;;;;;4.00;90.40;;;;;;5058046;28;20416;-76
2022/12/02 12:53:29;;;;;;;;;;;4.00;90.40;;;;;;5038799;28;19924;-76
2022/12/02 12:55:55;;;;;;;;;;;3.90;90.30;;;;;;5032597;28;19917;-76
2022/12/02 12:58:20;;;;;;;;;;;4.00;90.40;;;;;;5043235;28;20290;-77
2022/12/02 13:00:46;;;;;;;;;;;3.90;90.40;;;;;;5056431;28;19985;-75
2022/12/02 13:03:11;;;;;;;;;;;3.90;90.30;;;;;;5058838;28;19921;-76
2022/12/02 13:05:37;;;;;;;;;;;3.90;90.30;;;;;;5056853;28;19925;-77
2022/12/02 13:08:02;;;;;;;;;;;3.90;90.30;;;;;;5053627;28;19967;-75
2022/12/02 13:10:28;;;;;;;;;;;3.90;90.30;;;;;;5032422;28;21484;-75
2022/12/02 13:12:53;;;;;;;;;;;3.90;90.40;;;;;;5029602;28;20680;-75
2022/12/02 13:15:19;;;;;;;;;;;3.80;90.30;;;;;;5033203;28;19947;-75
2022/12/02 13:17:44;;;;;;;;;;;3.80;90.40;;;;;;5032322;28;20564;-75
2022/12/02 13:20:10;;;;;;;;;;;3.80;90.40;;;;;;5031702;28;20398;-75
2022/12/02 13:22:35;;;;;;;;;;;3.80;90.40;;;;;;5030563;28;19917;-75
2022/12/02 13:25:01;;;;;;;;;;;3.80;90.40;;;;;;5032721;28;20576;-76
2022/12/02 13:27:26;;;;;;;;;;;3.80;90.40;;;;;;5032802;28;19923;-76
2022/12/02 13:29:52;;;;;;;;;;;3.80;90.40;;;;;;5030809;28;20820;-76
2022/12/02 13:32:17;;;;;;;;;;;3.80;90.40;;;;;;5031294;28;19924;-75
2022/12/02 13:34:43;;;;;;;;;;;3.80;90.40;;;;;;5032740;28;19925;-76
2022/12/02 13:37:08;;;;;;;;;;;3.80;90.40;;;;;;5029989;28;19928;-75
2022/12/02 13:39:34;;;;;;;;;;;3.80;90.40;;;;;;5028731;28;19972;-75
2022/12/02 13:42:00;;;;;;;;;;;3.80;90.40;;;;;;5030875;28;19924;-77
2022/12/02 13:44:25;;;;;;;;;;;3.80;90.80;;;;;;5031828;28;19971;-75
2022/12/02 13:46:50;;;;;;;;;;;3.80;90.40;;;;;;5036764;28;19924;-77
2022/12/02 13:49:16;;;;;;;;;;;3.80;90.40;;;;;;5053547;28;19923;-76
2022/12/02 13:51:41;;;;;;;;;;;3.80;90.40;;;;;;5053834;28;20024;-75
2022/12/02 13:54:07;;;;;;;;;;;3.70;90.40;;;;;;5059013;28;19928;-75
2022/12/02 13:56:32;;;;;;;;;;;3.80;90.40;;;;;;5056147;28;19976;-75
2022/12/02 13:58:58;;;;;;;;;;;3.80;90.40;;;;;;5056595;28;19939;-76
2022/12/02 14:01:23;;;;;;;;;;;3.80;90.40;;;;;;5056940;28;19926;-75
2022/12/02 14:03:49;;;;;;;;;;;3.80;90.40;;;;;;5056340;28;21725;-76
2022/12/02 14:06:14;;;;;;;;;;;3.70;90.40;;;;;;5055537;28;20471;-75
2022/12/02 14:08:40;;;;;;;;;;;3.70;90.40;;;;;;5048375;28;19924;-75
2022/12/02 14:11:05;;;;;;;;;;;3.70;90.40;;;;;;5039592;28;19960;-76
2022/12/02 14:13:31;;;;;;;;;;;3.70;90.40;;;;;;5041412;28;20509;-76
2022/12/02 14:15:56;;;;;;;;;;;3.70;90.40;;;;;;5057498;28;19929;-75
2022/12/02 14:18:22;;;;;;;;;;;3.70;90.40;;;;;;5061108;28;20362;-77
2022/12/02 14:20:47;;;;;;;;;;;3.70;90.50;;;;;;5058726;28;20492;-76
2022/12/02 14:23:12;;;;;;;;;;;3.70;90.40;;;;;;5053142;28;19921;-75
2022/12/02 14:25:38;;;;;;;;;;;3.70;90.40;;;;;;5057986;28;19917;-76
2022/12/02 14:28:04;;;;;;;;;;;3.70;90.40;;;;;;5058057;28;19931;-75
2022/12/02 14:30:29;;;;;;;;;;;3.70;90.40;;;;;;5041301;28;19967;-76